Time;durP1;ratioP1;P1;durP2;ratioP2;P2;SDS_P1;SDS_P2;PMS_P1;PMS_P2;Temp;Humidity;BMP_temperature;BMP_pressure;BME280_temperature;BME280_humidity;BME280_pressure;Samples;Min_cycle;Max_cycle;Signal;HPM_P1;HPM_P2
2022/10/29 00:01:53;;;;;;;7.10;6.20;;;;;;;;;;104565;1309;22629;-39
2022/10/29 00:04:25;;;;;;;7.40;6.50;;;;;;;;;;104615;1302;22477;-38
2022/10/29 00:06:56;;;;;;;7.60;6.50;;;;;;;;;;104583;1300;22501;-38
2022/10/29 00:09:28;;;;;;;7.30;6.20;;;;;;;;;;104560;1306;24578;-37
2022/10/29 00:12:00;;;;;;;7.30;6.30;;;;;;;;;;104551;1314;22513;-38
2022/10/29 00:14:32;;;;;;;8.10;6.80;;;;;;;;;;104601;1299;22522;-38
2022/10/29 00:17:03;;;;;;;8.00;6.20;;;;;;;;;;104582;1307;22500;-38
2022/10/29 00:19:35;;;;;;;7.60;6.10;;;;;;;;;;104617;1305;22659;-37
2022/10/29 00:22:07;;;;;;;7.60;6.30;;;;;;;;;;104554;1304;22483;-38
2022/10/29 00:24:39;;;;;;;7.30;6.30;;;;;;;;;;104579;1316;22508;-37
2022/10/29 00:27:13;;;;;;;7.50;6.20;;;;;;;;;;104797;1295;24039;-38
2022/10/29 00:29:45;;;;;;;7.90;6.50;;;;;;;;;;104822;1309;22511;-39
2022/10/29 00:32:16;;;;;;;8.00;6.50;;;;;;;;;;104680;1314;22558;-37
2022/10/29 00:34:48;;;;;;;8.00;6.40;;;;;;;;;;104578;1317;22503;-37
2022/10/29 00:37:20;;;;;;;7.30;5.90;;;;;;;;;;104583;1294;22487;-37
2022/10/29 00:39:52;;;;;;;7.90;6.20;;;;;;;;;;104586;1302;22500;-38
2022/10/29 00:42:24;;;;;;;7.60;6.10;;;;;;;;;;104630;1296;22494;-37
2022/10/29 00:44:55;;;;;;;8.00;6.50;;;;;;;;;;104800;1308;22519;-38
2022/10/29 00:47:31;;;;;;;8.60;6.30;;;;;;;;;;104816;1308;22505;-37
2022/10/29 00:50:08;;;;;;;8.10;6.40;;;;;;;;;;104820;1301;22540;-37
2022/10/29 00:52:46;;;;;;;7.00;6.00;;;;;;;;;;104731;1292;24269;-37
2022/10/29 00:55:19;;;;;;;8.00;6.30;;;;;;;;;;104612;1307;22508;-37
2022/10/29 00:57:55;;;;;;;8.50;6.50;;;;;;;;;;104582;1293;22570;-38
2022/10/29 01:00:27;;;;;;;7.90;6.70;;;;;;;;;;104585;1309;22703;-38
2022/10/29 01:02:59;;;;;;;7.70;6.20;;;;;;;;;;104633;1314;22484;-37
2022/10/29 01:05:33;;;;;;;7.70;6.00;;;;;;;;;;104829;1308;22512;-37
2022/10/29 01:08:06;;;;;;;7.80;6.10;;;;;;;;;;104874;1293;25390;-37
2022/10/29 01:10:46;;;;;;;;;;;;;;;;;;104880;1287;22634;-37
2022/10/29 01:13:35;;;;;;;9.00;6.30;;;;;;;;;;104723;1309;22714;-37
2022/10/29 01:16:19;;;;;;;6.90;6.10;;;;;;;;;;104594;1310;22491;-38
2022/10/29 01:19:05;;;;;;;7.80;6.20;;;;;;;;;;104612;1307;22484;-38
2022/10/29 01:21:44;;;;;;;7.20;5.70;;;;;;;;;;104593;1316;22539;-37
2022/10/29 01:24:41;;;;;;;8.40;6.50;;;;;;;;;;104762;1309;22500;-37
2022/10/29 01:27:59;;;;;;;7.00;5.80;;;;;;;;;;104807;1304;22628;-37
2022/10/29 01:31:03;;;;;;;8.20;6.50;;;;;;;;;;104825;1293;22557;-38
2022/10/29 01:33:38;;;;;;;;;;;;;;;;;;104747;1309;22478;-39
2022/10/29 01:36:22;;;;;;;8.50;6.00;;;;;;;;;;104620;1302;25384;-37
2022/10/29 01:39:04;;;;;;;8.20;5.90;;;;;;;;;;104577;1303;22532;-37
2022/10/29 01:41:48;;;;;;;6.90;5.90;;;;;;;;;;104593;1302;25656;-37
2022/10/29 01:44:33;;;;;;;7.40;5.90;;;;;;;;;;104705;1300;22485;-38
2022/10/29 01:47:09;;;;;;;7.30;5.90;;;;;;;;;;104805;1293;24020;-37
2022/10/29 01:49:44;;;;;;;7.90;6.40;;;;;;;;;;104789;1309;23817;-39
2022/10/29 01:52:19;;;;;;;6.90;5.80;;;;;;;;;;104801;1302;22499;-37
2022/10/29 01:54:51;;;;;;;7.40;5.90;;;;;;;;;;104621;1308;25258;-37
2022/10/29 01:57:35;;;;;;;8.20;6.10;;;;;;;;;;104566;1290;24271;-37
2022/10/29 02:00:13;;;;;;;8.70;6.10;;;;;;;;;;104609;1309;22506;-37
2022/10/29 02:02:59;;;;;;;7.70;6.20;;;;;;;;;;104614;1301;22513;-37
2022/10/29 02:05:38;;;;;;;7.40;5.90;;;;;;;;;;104702;1302;22488;-38
2022/10/29 02:08:24;;;;;;;7.10;5.90;;;;;;;;;;104845;1308;25288;-37
2022/10/29 02:11:03;;;;;;;7.40;5.80;;;;;;;;;;104831;1302;22560;-39
2022/10/29 02:13:42;;;;;;;7.30;6.00;;;;;;;;;;104763;1307;22712;-37
2022/10/29 02:16:14;;;;;;;8.40;6.10;;;;;;;;;;104604;1309;22507;-37
2022/10/29 02:18:49;;;;;;;7.00;5.70;;;;;;;;;;104600;1309;22494;-40
2022/10/29 02:21:22;;;;;;;7.70;6.10;;;;;;;;;;104634;1309;22500;-37
2022/10/29 02:23:54;;;;;;;7.30;5.80;;;;;;;;;;104589;1314;22508;-38
2022/10/29 02:26:26;;;;;;;7.10;5.50;;;;;;;;;;104827;1286;22608;-38
2022/10/29 02:28:58;;;;;;;7.30;5.90;;;;;;;;;;104815;1304;22616;-37
2022/10/29 02:31:30;;;;;;;7.90;6.00;;;;;;;;;;104829;1302;22623;-37
2022/10/29 02:34:02;;;;;;;8.10;6.20;;;;;;;;;;104770;1308;23804;-38
2022/10/29 02:36:34;;;;;;;7.90;6.20;;;;;;;;;;104609;1302;22490;-37
2022/10/29 02:39:06;;;;;;;7.50;5.70;;;;;;;;;;104600;1296;25907;-38
2022/10/29 02:41:38;;;;;;;6.90;5.80;;;;;;;;;;104614;1303;22501;-38
2022/10/29 02:44:10;;;;;;;6.80;5.60;;;;;;;;;;104580;1293;25880;-38
2022/10/29 02:46:42;;;;;;;7.70;5.70;;;;;;;;;;104784;1309;25926;-37
2022/10/29 02:49:14;;;;;;;7.50;5.70;;;;;;;;;;104839;1296;22565;-38
2022/10/29 02:51:46;;;;;;;7.70;6.00;;;;;;;;;;104857;1302;22497;-38
2022/10/29 02:54:18;;;;;;;7.50;5.90;;;;;;;;;;104807;1309;22518;-37
2022/10/29 02:56:50;;;;;;;8.50;6.10;;;;;;;;;;104629;1315;25375;-37
2022/10/29 02:59:21;;;;;;;7.60;5.80;;;;;;;;;;104617;1314;22898;-38
2022/10/29 03:01:53;;;;;;;7.60;5.40;;;;;;;;;;104585;1302;22491;-37
2022/10/29 03:04:25;;;;;;;7.10;5.50;;;;;;;;;;104603;1311;22492;-38
2022/10/29 03:06:57;;;;;;;8.30;6.10;;;;;;;;;;104807;1308;25435;-38
2022/10/29 03:09:31;;;;;;;8.00;6.00;;;;;;;;;;104853;1279;24364;-38
2022/10/29 03:12:03;;;;;;;7.90;5.90;;;;;;;;;;104818;1303;22513;-37
2022/10/29 03:14:35;;;;;;;7.70;5.90;;;;;;;;;;104822;1301;22500;-38
2022/10/29 03:17:07;;;;;;;7.20;5.70;;;;;;;;;;104592;1303;22494;-37
2022/10/29 03:19:39;;;;;;;8.90;5.70;;;;;;;;;;104574;1308;23906;-37
2022/10/29 03:22:11;;;;;;;7.70;5.60;;;;;;;;;;104446;1311;22502;-38
2022/10/29 03:24:42;;;;;;;6.70;5.20;;;;;;;;;;104612;1299;22468;-37
2022/10/29 03:27:14;;;;;;;7.40;5.50;;;;;;;;;;104751;1312;25332;-37
2022/10/29 03:29:46;;;;;;;7.10;5.60;;;;;;;;;;104830;1310;22507;-39
2022/10/29 03:32:18;;;;;;;7.20;5.50;;;;;;;;;;104774;1300;22499;-37
2022/10/29 03:34:50;;;;;;;7.50;5.50;;;;;;;;;;104816;1297;22563;-38
2022/10/29 03:37:21;;;;;;;7.20;5.60;;;;;;;;;;104577;1309;22515;-38
2022/10/29 03:39:53;;;;;;;7.10;5.80;;;;;;;;;;104586;1307;22560;-37
2022/10/29 03:42:25;;;;;;;6.80;5.40;;;;;;;;;;104595;1303;22608;-37
2022/10/29 03:44:57;;;;;;;6.50;5.10;;;;;;;;;;104598;1301;25486;-38
2022/10/29 03:47:29;;;;;;;7.80;5.90;;;;;;;;;;104660;1305;22901;-37
2022/10/29 03:50:02;;;;;;;7.80;5.80;;;;;;;;;;104551;1292;25183;-37
2022/10/29 03:52:34;;;;;;;6.90;5.30;;;;;;;;;;104570;1305;24807;-38
2022/10/29 03:55:10;;;;;;;7.40;5.40;;;;;;;;;;104545;1315;25205;-37
2022/10/29 03:57:41;;;;;;;7.30;5.40;;;;;;;;;;104297;1310;22926;-37
2022/10/29 04:00:16;;;;;;;7.20;5.30;;;;;;;;;;104312;1302;22568;-37
2022/10/29 04:02:48;;;;;;;6.80;5.20;;;;;;;;;;104541;1308;24287;-37
2022/10/29 04:05:20;;;;;;;7.00;5.30;;;;;;;;;;104583;1309;23806;-37
2022/10/29 04:07:51;;;;;;;7.50;5.50;;;;;;;;;;104764;1305;22632;-37
2022/10/29 04:10:24;;;;;;;7.20;5.50;;;;;;;;;;104693;1308;22646;-38
2022/10/29 04:12:56;;;;;;;7.20;5.30;;;;;;;;;;104846;1306;22684;-37
2022/10/29 04:15:29;;;;;;;6.80;5.40;;;;;;;;;;104850;1302;22629;-38
2022/10/29 04:18:01;;;;;;;8.00;5.20;;;;;;;;;;104574;1295;22534;-38
2022/10/29 04:20:32;;;;;;;7.40;5.10;;;;;;;;;;104582;1293;22506;-37
2022/10/29 04:23:04;;;;;;;9.30;5.70;;;;;;;;;;104577;1315;22621;-38
2022/10/29 04:25:36;;;;;;;7.20;5.60;;;;;;;;;;104576;1309;25363;-38
2022/10/29 04:28:09;;;;;;;7.50;5.20;;;;;;;;;;104761;1302;22484;-38
2022/10/29 04:30:41;;;;;;;7.70;5.50;;;;;;;;;;104821;1299;22498;-38
2022/10/29 04:33:12;;;;;;;6.70;5.20;;;;;;;;;;104842;1301;22477;-38
2022/10/29 04:35:43;;;;;;;7.40;5.20;;;;;;;;;;104850;1308;22513;-37
2022/10/29 04:38:13;;;;;;;7.70;5.30;;;;;;;;;;104625;1285;22588;-38
2022/10/29 04:40:44;;;;;;;6.50;5.10;;;;;;;;;;104635;1301;22497;-38
2022/10/29 04:43:14;;;;;;;7.30;5.30;;;;;;;;;;104632;1301;24359;-38
2022/10/29 04:45:44;;;;;;;7.20;5.30;;;;;;;;;;104601;1312;22564;-39
2022/10/29 04:48:14;;;;;;;6.70;5.30;;;;;;;;;;104723;1300;22543;-38
2022/10/29 04:50:45;;;;;;;7.60;5.10;;;;;;;;;;104836;1301;25993;-38
2022/10/29 04:53:15;;;;;;;6.70;5.00;;;;;;;;;;104831;1301;22540;-38
2022/10/29 04:55:46;;;;;;;6.90;5.30;;;;;;;;;;104851;1308;22579;-37
2022/10/29 04:58:18;;;;;;;7.60;5.20;;;;;;;;;;104654;1309;22540;-38
2022/10/29 05:00:48;;;;;;;6.70;4.90;;;;;;;;;;104598;1293;22498;-37
2022/10/29 05:03:18;;;;;;;7.30;5.10;;;;;;;;;;104596;1301;22644;-37
2022/10/29 05:05:49;;;;;;;8.00;5.30;;;;;;;;;;104639;1303;23485;-37
2022/10/29 05:08:20;;;;;;;6.80;4.90;;;;;;;;;;104704;1302;25859;-38
2022/10/29 05:10:51;;;;;;;7.10;5.30;;;;;;;;;;104843;1308;23822;-38
2022/10/29 05:13:21;;;;;;;6.70;5.20;;;;;;;;;;104894;1308;22550;-38
2022/10/29 05:15:53;;;;;;;7.00;5.00;;;;;;;;;;104855;1308;25493;-37
2022/10/29 05:18:26;;;;;;;7.20;4.90;;;;;;;;;;104699;1294;22598;-39
2022/10/29 05:20:55;;;;;;;;;;;;;;;;;;104655;1306;22472;-38
2022/10/29 05:23:25;;;;;;;7.00;4.70;;;;;;;;;;104603;1303;22693;-38
2022/10/29 05:25:56;;;;;;;7.50;5.10;;;;;;;;;;104630;1308;22506;-38
2022/10/29 05:28:27;;;;;;;6.70;4.90;;;;;;;;;;104671;1309;22493;-37
2022/10/29 05:30:59;;;;;;;7.70;5.10;;;;;;;;;;104864;1293;22548;-38
2022/10/29 05:33:30;;;;;;;6.40;4.80;;;;;;;;;;104864;1302;25400;-38
2022/10/29 05:36:01;;;;;;;6.50;5.00;;;;;;;;;;104874;1295;22534;-38
2022/10/29 05:38:32;;;;;;;7.90;5.00;;;;;;;;;;104754;1293;22630;-37
2022/10/29 05:41:02;;;;;;;7.00;5.10;;;;;;;;;;104627;1303;25388;-38
2022/10/29 05:43:32;;;;;;;7.10;4.70;;;;;;;;;;104631;1309;22608;-38
2022/10/29 05:46:05;;;;;;;6.70;4.80;;;;;;;;;;104648;1304;22483;-38
2022/10/29 05:48:35;;;;;;;7.40;5.30;;;;;;;;;;104685;1294;22713;-39
2022/10/29 05:51:05;;;;;;;7.30;4.80;;;;;;;;;;104877;1300;22492;-38
2022/10/29 05:53:36;;;;;;;6.40;4.80;;;;;;;;;;104879;1300;25314;-38
2022/10/29 05:56:08;;;;;;;6.70;5.10;;;;;;;;;;104864;1292;22510;-37
2022/10/29 05:58:38;;;;;;;7.60;5.20;;;;;;;;;;104756;1291;22549;-38
2022/10/29 06:01:10;;;;;;;7.40;5.00;;;;;;;;;;104633;1302;22630;-37
2022/10/29 06:03:40;;;;;;;6.70;4.70;;;;;;;;;;104620;1293;22491;-37
2022/10/29 06:06:11;;;;;;;6.90;4.80;;;;;;;;;;104608;1305;22540;-38
2022/10/29 06:08:41;;;;;;;6.30;4.50;;;;;;;;;;104636;1309;22568;-38
2022/10/29 06:11:11;;;;;;;6.20;4.70;;;;;;;;;;104888;1302;22518;-37
2022/10/29 06:13:41;;;;;;;6.90;4.20;;;;;;;;;;104894;1302;24341;-37
2022/10/29 06:16:12;;;;;;;7.10;4.50;;;;;;;;;;104844;1307;22490;-38
2022/10/29 06:18:42;;;;;;;6.50;4.40;;;;;;;;;;104795;1309;22634;-38
2022/10/29 06:21:13;;;;;;;5.90;4.60;;;;;;;;;;104634;1302;23877;-38
2022/10/29 06:23:43;;;;;;;6.60;4.50;;;;;;;;;;104615;1302;22543;-38
2022/10/29 06:26:13;;;;;;;7.00;4.70;;;;;;;;;;104625;1316;22504;-38
2022/10/29 06:28:43;;;;;;;6.30;4.50;;;;;;;;;;104634;1305;22533;-38
2022/10/29 06:31:14;;;;;;;6.50;4.50;;;;;;;;;;104872;1300;22515;-37
2022/10/29 06:33:46;;;;;;;6.30;4.40;;;;;;;;;;104858;1300;22485;-37
2022/10/29 06:36:17;;;;;;;6.40;4.70;;;;;;;;;;104883;1301;22515;-40
2022/10/29 06:38:48;;;;;;;8.80;4.80;;;;;;;;;;104666;1299;218479;-38
2022/10/29 06:41:23;;;;;;;6.00;4.30;;;;;;;;;;104628;1299;22944;-38
2022/10/29 06:43:54;;;;;;;6.60;4.30;;;;;;;;;;104636;1302;22716;-39
2022/10/29 06:46:24;;;;;;;7.40;4.60;;;;;;;;;;104628;1314;23994;-40
2022/10/29 06:48:55;;;;;;;6.50;4.30;;;;;;;;;;104606;1305;22507;-38
2022/10/29 06:51:25;;;;;;;7.40;4.40;;;;;;;;;;104819;1312;22705;-38
2022/10/29 06:53:56;;;;;;;7.00;4.60;;;;;;;;;;104861;1300;22572;-38
2022/10/29 06:56:29;;;;;;;7.40;4.80;;;;;;;;;;104839;1293;22529;-38
2022/10/29 06:58:58;;;;;;;;;;;;;;;;;;104883;1294;22511;-38
2022/10/29 07:01:31;;;;;;;7.00;4.60;;;;;;;;;;104616;1302;22506;-38
2022/10/29 07:04:02;;;;;;;7.30;4.90;;;;;;;;;;104632;1310;24020;-38
2022/10/29 07:06:34;;;;;;;7.10;4.40;;;;;;;;;;104638;1299;22530;-39
2022/10/29 07:09:05;;;;;;;6.40;4.50;;;;;;;;;;104630;1316;22551;-38
2022/10/29 07:11:35;;;;;;;6.70;4.50;;;;;;;;;;104785;1300;22783;-38
2022/10/29 07:14:07;;;;;;;6.60;4.40;;;;;;;;;;104789;1299;22955;-38
2022/10/29 07:16:38;;;;;;;6.70;4.30;;;;;;;;;;104892;1308;22564;-38
2022/10/29 07:19:08;;;;;;;6.30;4.40;;;;;;;;;;104859;1302;23893;-38
2022/10/29 07:21:38;;;;;;;6.20;4.30;;;;;;;;;;104622;1293;22514;-38
2022/10/29 07:24:10;;;;;;;6.30;4.20;;;;;;;;;;104628;1303;22538;-39
2022/10/29 07:26:41;;;;;;;6.20;4.40;;;;;;;;;;104629;1295;22504;-38
2022/10/29 07:29:12;;;;;;;6.20;4.10;;;;;;;;;;104663;1311;22509;-39
2022/10/29 07:31:43;;;;;;;5.80;4.10;;;;;;;;;;104787;1303;22681;-42
2022/10/29 07:34:13;;;;;;;6.20;4.40;;;;;;;;;;104837;1305;24049;-42
2022/10/29 07:36:44;;;;;;;6.00;4.20;;;;;;;;;;104755;1305;22490;-38
2022/10/29 07:39:14;;;;;;;6.40;4.50;;;;;;;;;;104741;1299;25412;-38
2022/10/29 07:41:44;;;;;;;5.60;4.10;;;;;;;;;;104583;1303;25401;-38
2022/10/29 07:44:15;;;;;;;6.40;4.30;;;;;;;;;;104611;1303;22742;-38
2022/10/29 07:46:45;;;;;;;6.10;4.20;;;;;;;;;;104557;1309;23612;-38
2022/10/29 07:49:15;;;;;;;6.50;4.40;;;;;;;;;;104603;1295;22490;-39
2022/10/29 07:51:47;;;;;;;6.70;4.40;;;;;;;;;;104657;1308;24954;-37
2022/10/29 07:54:17;;;;;;;5.70;3.90;;;;;;;;;;104751;1310;22514;-39
2022/10/29 07:56:48;;;;;;;6.80;4.30;;;;;;;;;;104739;1305;22508;-38
2022/10/29 07:59:18;;;;;;;6.40;4.50;;;;;;;;;;104754;1296;22505;-38
2022/10/29 08:01:48;;;;;;;5.50;4.00;;;;;;;;;;104629;1311;22498;-39
2022/10/29 08:04:19;;;;;;;6.30;4.20;;;;;;;;;;104563;1302;22629;-38
2022/10/29 08:06:49;;;;;;;6.60;3.90;;;;;;;;;;104595;1302;22495;-38
2022/10/29 08:09:19;;;;;;;5.90;3.70;;;;;;;;;;104566;1296;22845;-39
2022/10/29 08:11:50;;;;;;;6.70;4.00;;;;;;;;;;104638;1309;22895;-38
2022/10/29 08:14:20;;;;;;;6.70;4.20;;;;;;;;;;104738;1309;22557;-38
2022/10/29 08:16:50;;;;;;;6.10;4.00;;;;;;;;;;104708;1309;22761;-39
2022/10/29 08:19:21;;;;;;;6.40;3.90;;;;;;;;;;104735;1302;22517;-38
2022/10/29 08:21:51;;;;;;;6.00;4.10;;;;;;;;;;104641;1299;22490;-39
2022/10/29 08:24:21;;;;;;;6.20;4.10;;;;;;;;;;104594;1304;22508;-38
2022/10/29 08:26:53;;;;;;;6.60;4.00;;;;;;;;;;104586;1309;22517;-38
2022/10/29 08:29:26;;;;;;;6.00;3.90;;;;;;;;;;104613;1296;22507;-38
2022/10/29 08:31:56;;;;;;;5.60;3.80;;;;;;;;;;104616;1302;22513;-37
2022/10/29 08:34:27;;;;;;;6.10;3.90;;;;;;;;;;104743;1301;22487;-39
2022/10/29 08:36:57;;;;;;;6.50;4.30;;;;;;;;;;104711;1301;22497;-42
2022/10/29 08:39:27;;;;;;;6.10;4.00;;;;;;;;;;104732;1308;22609;-42
2022/10/29 08:42:06;;;;;;;7.20;4.00;;;;;;;;;;104647;1302;22562;-38
2022/10/29 08:48:19;;;;;;;6.30;3.70;;;;;;;;;;104919;1277;22521;-36
2022/10/29 08:50:56;;;;;;;5.90;4.00;;;;;;;;;;104804;1302;22571;-36
2022/10/29 08:53:35;;;;;;;7.20;4.40;;;;;;;;;;104772;1289;23876;-36
2022/10/29 08:56:10;;;;;;;7.90;4.40;;;;;;;;;;104871;1291;22481;-37
2022/10/29 08:58:48;;;;;;;8.40;4.30;;;;;;;;;;104852;1286;22503;-37
2022/10/29 09:01:21;;;;;;;6.10;4.10;;;;;;;;;;104860;1302;23846;-36
2022/10/29 09:03:50;;;;;;;;;;;;;;;;;;104772;1291;23830;-36
2022/10/29 09:06:27;;;;;;;6.60;3.90;;;;;;;;;;104843;1299;22667;-36
2022/10/29 09:09:08;;;;;;;6.60;4.40;;;;;;;;;;104849;1308;25286;-36
2022/10/29 09:12:10;;;;;;;6.00;3.60;;;;;;;;;;104854;1306;22500;-36
2022/10/29 09:14:53;;;;;;;7.10;3.80;;;;;;;;;;104768;1293;22630;-37
2022/10/29 09:17:30;;;;;;;7.30;4.20;;;;;;;;;;104816;1303;22506;-38
2022/10/29 09:20:18;;;;;;;7.00;4.00;;;;;;;;;;104825;1300;22477;-37
2022/10/29 09:22:56;;;;;;;6.80;4.60;;;;;;;;;;104760;1309;22479;-37
2022/10/29 09:25:30;;;;;;;6.80;4.10;;;;;;;;;;104843;1308;22494;-40
2022/10/29 09:28:11;;;;;;;6.70;4.00;;;;;;;;;;104800;1300;23035;-39
2022/10/29 09:30:46;;;;;;;6.20;4.20;;;;;;;;;;104773;1291;22504;-42
2022/10/29 09:33:19;;;;;;;6.70;3.50;;;;;;;;;;104667;1303;25362;-41
2022/10/29 09:35:52;;;;;;;;;;;;;;;;;;104755;1284;24240;-48
2022/10/29 09:38:26;;;;;;;6.50;4.10;;;;;;;;;;104819;1300;22484;-44
2022/10/29 09:40:58;;;;;;;6.60;4.00;;;;;;;;;;104790;1299;22554;-45
2022/10/29 09:43:41;;;;;;;7.10;4.30;;;;;;;;;;104823;1299;22503;-47
2022/10/29 09:46:16;;;;;;;7.10;3.80;;;;;;;;;;104810;1305;22606;-48
2022/10/29 09:48:53;;;;;;;6.60;4.10;;;;;;;;;;104816;1291;25708;-51
2022/10/29 09:51:34;;;;;;;6.50;3.80;;;;;;;;;;104802;1291;22683;-44
2022/10/29 09:54:06;;;;;;;7.60;4.00;;;;;;;;;;104778;1309;22501;-40
2022/10/29 09:56:36;;;;;;;8.30;4.20;;;;;;;;;;104800;1300;22515;-42
2022/10/29 09:59:16;;;;;;;7.20;4.00;;;;;;;;;;104737;1299;22491;-52
2022/10/29 10:01:47;;;;;;;8.20;4.50;;;;;;;;;;104733;1308;22502;-49
2022/10/29 10:04:24;;;;;;;6.70;4.30;;;;;;;;;;104666;1301;22653;-40
2022/10/29 10:07:09;;;;;;;6.30;3.80;;;;;;;;;;104714;1294;23838;-38
2022/10/29 10:09:55;;;;;;;7.50;4.10;;;;;;;;;;104813;1290;22458;-40
2022/10/29 10:12:27;;;;;;;7.00;4.50;;;;;;;;;;104813;1308;22510;-40
2022/10/29 10:15:07;;;;;;;10.40;4.60;;;;;;;;;;104802;1292;22523;-40
2022/10/29 10:17:55;;;;;;;8.30;4.60;;;;;;;;;;104862;1288;22556;-39
2022/10/29 10:20:45;;;;;;;6.40;4.50;;;;;;;;;;104815;1301;22497;-39
2022/10/29 10:23:26;;;;;;;6.30;4.40;;;;;;;;;;104852;1299;22485;-39
2022/10/29 10:26:01;;;;;;;8.00;4.80;;;;;;;;;;104815;1300;22500;-39
2022/10/29 10:28:34;;;;;;;9.20;5.00;;;;;;;;;;104818;1300;22497;-39
2022/10/29 10:31:16;;;;;;;7.30;5.20;;;;;;;;;;104808;1302;22727;-38
2022/10/29 10:33:55;;;;;;;7.70;4.40;;;;;;;;;;104783;1303;24370;-37
2022/10/29 10:36:30;;;;;;;8.30;5.00;;;;;;;;;;104750;1302;22584;-39
2022/10/29 10:39:05;;;;;;;8.40;5.50;;;;;;;;;;104780;1300;22956;-36
2022/10/29 10:41:38;;;;;;;6.70;4.90;;;;;;;;;;104799;1299;22497;-28
2022/10/29 10:44:13;;;;;;;7.60;5.10;;;;;;;;;;104765;1299;22722;-28
2022/10/29 10:46:47;;;;;;;7.70;4.80;;;;;;;;;;104818;1291;22503;-28
2022/10/29 10:49:20;;;;;;;;;;;;;;;;;;104879;1306;22515;-28
2022/10/29 10:51:52;;;;;;;;;;;;;;;;;;104933;1307;25330;-31
2022/10/29 10:54:32;;;;;;;8.10;4.80;;;;;;;;;;104822;1300;22495;-31
2022/10/29 10:57:19;;;;;;;8.20;5.00;;;;;;;;;;104771;1302;22515;-31
2022/10/29 10:59:59;;;;;;;9.90;5.30;;;;;;;;;;104688;1308;25420;-31
2022/10/29 11:02:47;;;;;;;8.50;5.70;;;;;;;;;;104661;1313;26046;-31
2022/10/29 11:05:23;;;;;;;11.10;7.20;;;;;;;;;;104567;1308;24268;-31
2022/10/29 11:08:10;;;;;;;8.10;5.50;;;;;;;;;;104870;1303;22536;-31
2022/10/29 11:10:50;;;;;;;9.60;5.30;;;;;;;;;;104807;1306;22491;-31
2022/10/29 11:13:25;;;;;;;7.70;5.40;;;;;;;;;;104877;1300;23965;-31
2022/10/29 11:16:05;;;;;;;7.70;5.30;;;;;;;;;;104750;1293;22717;-32
2022/10/29 11:18:41;;;;;;;8.40;5.50;;;;;;;;;;104776;1308;22941;-31
2022/10/29 11:21:19;;;;;;;9.20;5.10;;;;;;;;;;104775;1301;22502;-31
2022/10/29 11:24:02;;;;;;;8.30;5.30;;;;;;;;;;104728;1309;25244;-31
2022/10/29 11:26:39;;;;;;;9.00;5.00;;;;;;;;;;104768;1308;22498;-32
2022/10/29 11:29:22;;;;;;;8.40;5.20;;;;;;;;;;104765;1300;22518;-31
2022/10/29 11:32:02;;;;;;;6.80;4.80;;;;;;;;;;104850;1308;25277;-32
2022/10/29 11:34:45;;;;;;;7.70;4.80;;;;;;;;;;104832;1306;22546;-32
2022/10/29 11:37:20;;;;;;;;;;;;;;;;;;104754;1313;22493;-31
2022/10/29 11:40:00;;;;;;;7.90;4.70;;;;;;;;;;104767;1298;22494;-31
2022/10/29 11:42:35;;;;;;;7.60;4.80;;;;;;;;;;104745;1296;22497;-31
2022/10/29 11:45:13;;;;;;;7.00;4.90;;;;;;;;;;104742;1292;22568;-31
2022/10/29 11:48:13;;;;;;;8.00;4.70;;;;;;;;;;104786;1296;23922;-32
2022/10/29 11:50:54;;;;;;;7.40;4.60;;;;;;;;;;104771;1306;24316;-31
2022/10/29 11:53:47;;;;;;;7.70;4.80;;;;;;;;;;104840;1292;22566;-31
2022/10/29 11:56:36;;;;;;;7.40;4.50;;;;;;;;;;104785;1291;22570;-32
2022/10/29 11:59:17;;;;;;;8.20;4.90;;;;;;;;;;104761;1301;22510;-31
2022/10/29 12:02:01;;;;;;;7.80;4.50;;;;;;;;;;104744;1300;22487;-31
2022/10/29 12:04:37;;;;;;;7.60;4.70;;;;;;;;;;104741;1300;22508;-32
2022/10/29 12:07:25;;;;;;;6.60;4.40;;;;;;;;;;104743;1300;23887;-31
2022/10/29 12:10:17;;;;;;;7.00;4.80;;;;;;;;;;104821;1301;25143;-31
2022/10/29 12:13:05;;;;;;;6.20;4.40;;;;;;;;;;104836;1293;23044;-31
2022/10/29 12:15:43;;;;;;;6.30;4.00;;;;;;;;;;104837;1300;22497;-31
2022/10/29 12:18:25;;;;;;;6.30;4.30;;;;;;;;;;104731;1299;25336;-31
2022/10/29 12:21:02;;;;;;;7.10;4.50;;;;;;;;;;104768;1309;25397;-31
2022/10/29 12:23:49;;;;;;;6.20;3.90;;;;;;;;;;104816;1293;22455;-31
2022/10/29 12:26:29;;;;;;;6.50;4.30;;;;;;;;;;104721;1315;22588;-31
2022/10/29 12:29:08;;;;;;;6.20;4.30;;;;;;;;;;104695;1306;22521;-32
2022/10/29 12:31:54;;;;;;;7.90;4.70;;;;;;;;;;104799;1291;22508;-32
2022/10/29 12:34:34;;;;;;;6.00;4.20;;;;;;;;;;104869;1290;22496;-31
2022/10/29 12:37:16;;;;;;;8.60;4.50;;;;;;;;;;104634;1307;23804;-31
2022/10/29 12:39:56;;;;;;;7.20;4.30;;;;;;;;;;104748;1308;25286;-31
2022/10/29 12:42:30;;;;;;;9.60;4.80;;;;;;;;;;104752;1309;22510;-32
2022/10/29 12:45:19;;;;;;;7.60;4.70;;;;;;;;;;104758;1302;22776;-32
2022/10/29 12:48:01;;;;;;;6.50;4.50;;;;;;;;;;104712;1291;22604;-30
2022/10/29 12:50:41;;;;;;;;;;;;;;;;;;104891;1303;22485;-31
2022/10/29 12:53:28;;;;;;;6.90;4.40;;;;;;;;;;104856;1289;22603;-31
2022/10/29 12:56:02;;;;;;;6.80;4.60;;;;;;;;;;104800;1299;22492;-32
2022/10/29 12:58:52;;;;;;;7.20;4.20;;;;;;;;;;104811;1284;22567;-30
2022/10/29 13:01:50;;;;;;;7.20;4.30;;;;;;;;;;104772;1295;22494;-31
2022/10/29 13:04:33;;;;;;;5.60;4.00;;;;;;;;;;104700;1300;22491;-31
2022/10/29 13:07:27;;;;;;;6.70;4.00;;;;;;;;;;104775;1302;25242;-32
2022/10/29 13:10:49;;;;;;;7.70;4.00;;;;;;;;;;104804;1306;22503;-32
2022/10/29 13:13:38;;;;;;;6.00;3.70;;;;;;;;;;104857;1293;22509;-31
2022/10/29 13:16:18;;;;;;;5.50;3.70;;;;;;;;;;104833;1307;22483;-31
2022/10/29 13:19:05;;;;;;;6.00;3.60;;;;;;;;;;104754;1292;22497;-31
2022/10/29 13:22:28;;;;;;;5.50;3.90;;;;;;;;;;104735;1300;23813;-31
2022/10/29 13:25:47;;;;;;;6.40;3.70;;;;;;;;;;104738;1310;22500;-31
2022/10/29 13:28:53;;;;;;;5.50;3.70;;;;;;;;;;104756;1307;22568;-31
2022/10/29 13:31:53;;;;;;;6.60;3.60;;;;;;;;;;104830;1300;22517;-31
2022/10/29 13:34:54;;;;;;;5.50;3.50;;;;;;;;;;104784;1292;22491;-31
2022/10/29 13:37:51;;;;;;;5.10;3.40;;;;;;;;;;104791;1299;22512;-31
2022/10/29 13:41:03;;;;;;;6.10;3.40;;;;;;;;;;104752;1309;23793;-31
2022/10/29 13:43:39;;;;;;;5.80;3.20;;;;;;;;;;104783;1285;25294;-31
2022/10/29 13:46:47;;;;;;;4.80;3.40;;;;;;;;;;104765;1308;25302;-31
2022/10/29 13:49:24;;;;;;;5.00;3.20;;;;;;;;;;104656;1299;22496;-31
2022/10/29 13:52:02;;;;;;;6.10;3.40;;;;;;;;;;104914;1300;22731;-31
2022/10/29 13:54:42;;;;;;;6.70;3.40;;;;;;;;;;104751;1300;22655;-31
2022/10/29 13:57:25;;;;;;;4.70;3.00;;;;;;;;;;104780;1284;22598;-31
2022/10/29 14:00:03;;;;;;;6.30;3.50;;;;;;;;;;104807;1294;22506;-31
2022/10/29 14:02:54;;;;;;;6.60;3.30;;;;;;;;;;104729;1308;22628;-33
2022/10/29 14:05:38;;;;;;;6.00;3.10;;;;;;;;;;104763;1293;22528;-32
2022/10/29 14:08:19;;;;;;;5.40;3.10;;;;;;;;;;104769;1299;25371;-32
2022/10/29 14:10:56;;;;;;;6.00;3.40;;;;;;;;;;104718;1309;22491;-32
2022/10/29 14:13:34;;;;;;;5.50;3.30;;;;;;;;;;104790;1299;22595;-31
2022/10/29 14:16:14;;;;;;;5.80;3.10;;;;;;;;;;104784;1302;22484;-31
2022/10/29 14:18:53;;;;;;;5.80;3.30;;;;;;;;;;104785;1291;22510;-30
2022/10/29 14:21:30;;;;;;;5.40;3.30;;;;;;;;;;104737;1300;26067;-31
2022/10/29 14:24:06;;;;;;;5.20;3.00;;;;;;;;;;104755;1291;22497;-30
2022/10/29 14:26:41;;;;;;;5.40;3.20;;;;;;;;;;104801;1305;22552;-31
2022/10/29 14:29:25;;;;;;;6.50;3.00;;;;;;;;;;104788;1284;22494;-31
2022/10/29 14:32:17;;;;;;;5.50;3.20;;;;;;;;;;104758;1299;24052;-31
2022/10/29 14:34:53;;;;;;;4.90;3.30;;;;;;;;;;104849;1303;22504;-31
2022/10/29 14:37:33;;;;;;;6.90;3.20;;;;;;;;;;104752;1307;22509;-31
2022/10/29 14:40:18;;;;;;;4.70;3.00;;;;;;;;;;104613;1300;161986;-31
2022/10/29 14:42:55;;;;;;;5.30;3.40;;;;;;;;;;104814;1296;22518;-31
2022/10/29 14:45:35;;;;;;;5.30;3.30;;;;;;;;;;104800;1301;25287;-31
2022/10/29 14:48:17;;;;;;;5.50;3.20;;;;;;;;;;104814;1309;25216;-31
2022/10/29 14:50:55;;;;;;;4.50;3.00;;;;;;;;;;104772;1300;22500;-31
2022/10/29 14:53:34;;;;;;;4.70;3.10;;;;;;;;;;104813;1299;22574;-31
2022/10/29 14:56:16;;;;;;;5.90;3.60;;;;;;;;;;104767;1299;23765;-31
2022/10/29 14:58:50;;;;;;;6.60;3.50;;;;;;;;;;104809;1301;22554;-28
2022/10/29 15:01:22;;;;;;;5.60;3.40;;;;;;;;;;104782;1294;25369;-28
2022/10/29 15:04:01;;;;;;;5.40;3.40;;;;;;;;;;104841;1302;25373;-31
2022/10/29 15:06:33;;;;;;;5.90;3.30;;;;;;;;;;104851;1306;24004;-28
2022/10/29 15:09:19;;;;;;;5.10;3.40;;;;;;;;;;104862;1301;22952;-28
2022/10/29 15:12:02;;;;;;;4.80;3.00;;;;;;;;;;104783;1292;22504;-28
2022/10/29 15:14:48;;;;;;;5.80;3.40;;;;;;;;;;104849;1303;25906;-28
2022/10/29 15:17:26;;;;;;;6.20;3.50;;;;;;;;;;104794;1310;22507;-28
2022/10/29 15:20:02;;;;;;;5.40;3.30;;;;;;;;;;104787;1308;22504;-28
2022/10/29 15:22:41;;;;;;;6.50;3.50;;;;;;;;;;104802;1300;25858;-28
2022/10/29 15:25:24;;;;;;;5.90;3.40;;;;;;;;;;104850;1300;22494;-28
2022/10/29 15:27:57;;;;;;;6.40;3.60;;;;;;;;;;104859;1297;22579;-28
2022/10/29 15:30:37;;;;;;;6.00;3.60;;;;;;;;;;104848;1300;22958;-28
2022/10/29 15:33:18;;;;;;;4.80;3.30;;;;;;;;;;104785;1293;24233;-28